Domov               UVHVVR             MKGP            O straneh              
ZDRAVSTVENO VARSTVO RASTLIN
  MREŽA AGROMET. POSTAJ
 ► PROGNOSTIČNA OBVESTILA
AGROMETEOROLOŠKI PODATKI -
ARSO
OBVLADOVANJE TVEGANJ ZARADI
NEUGODNIH VREMENSKIH RAZMER
  ► NARAVNE NESREČE
  ► SUŠA/MOČA
  ► NAMAKANJE
  ► ŽLED (gozdarstvo)
KARTOGRAFSKI PRIKAZI
SPLETNE POVEZAVE
PROJEKTI IN PUBLIKACIJE

AGROMETEOROLOŠKA MREŽA: VREMENSKE POSTAJE IN FENOLOŠKA OPAZOVANJA

Pregled podatkov za lokacijo Maribor - BTŠ, meteorološka postaja 35810

Pregled senzorjev na lokaciji

ID Ime Zadnja
vrednost
Datum
zadnje
spremembe
Tip
senzorja
4297 Omočenost lista (U) 4 U 19.9.2018 20:30 A730WET
1723 Padavine (mm) 0 mm 19.9.2018 20:30 Generic 0.2 mm
1722 Relativna vlaga 2 m (% RH) 87,62 % RH 19.9.2018 20:30 Generic 0 - 100 %
1721 Temperatura 2 m (°C) 18,07 °C 19.9.2018 20:30 Generic -40 - +60 °C
4296 Smer vetra (°) 279,38 ° 19.9.2018 20:30 Generic 0 - 360
4295 Hitrost vetra (km/h) 1,17 km/h 19.9.2018 20:30 Generic 100 km/h

Pregled podatkov zadnjih 24 ur

Zap.
št.
Datum in čas Maribor - BTŠ
Omočenost
lista
Padavine Relativna
vlaga
2
m
Temperatura
2
m
Smer
vetra
Hitrost
vetra
1 19.9.2018 20:30
2 19.9.2018 20:00
3 19.9.2018 19:30 4 0 87,6 18,1 279,4 1,2
4 19.9.2018 19:00 1 0 84,6 19 295,2 0,4
5 19.9.2018 18:30 0 0 81,2 20 266,6 0,7
6 19.9.2018 18:00 0 0 74,8 21,5 288 0,7
7 19.9.2018 17:30 0 0 68,2 22,8 306,9 0,5
8 19.9.2018 17:00 0 0 60,1 24,7 77,6 0,1
9 19.9.2018 16:30 0 0 55,6 25,9 281 0,6
10 19.9.2018 16:00 0 0 51,9 26,8 55,8 1,1
11 19.9.2018 15:30 0 0 50,3 27 329,4 0,8
12 19.9.2018 15:00 0 0 51,6 26,6 94,1 1,8
13 19.9.2018 14:30 0 0 51,2 26,7 312,2 1,4
14 19.9.2018 14:00 0 0 55,2 25,8 134,4 1
15 19.9.2018 13:30 0 0 56,9 24,7 118,7 0,9
16 19.9.2018 13:00 0 0 55,3 25,4 310,3 1,4
17 19.9.2018 12:30 0 0 54,4 25,9 156,8 2,1
18 19.9.2018 12:00 0 0 54 25,8 289,8 2,1
19 19.9.2018 11:30 0 0 55,8 25,6 30,7 1,6
20 19.9.2018 11:00 0 0 57,5 24,6 310,3 1,4
21 19.9.2018 10:30 0 0 59,4 24,5 292,7 1,3
22 19.9.2018 10:00 0 0 61,5 23,5 187 1,6
23 19.9.2018 09:30 0 0 64,8 22,2 176,2 2,2
24 19.9.2018 09:00 0 0 68 21,4 275,3 1,9
25 19.9.2018 08:30 7 0 74,9 19,4 331,7 2,6
26 19.9.2018 08:00 10 0 81,6 17,4 280,2 2,6
27 19.9.2018 07:30 10 0 86,6 15,9 292,3 2,6
28 19.9.2018 07:00 10 0 90,3 14,9 341,2 2,9
29 19.9.2018 06:30 10 0 95,1 13,6 270 1,4
30 19.9.2018 06:00 10 0 95,6 12,6 244,8 0,4
31 19.9.2018 05:30 10 0 95,2 12,6 244,3 0,4
32 19.9.2018 05:00 10 0 95,2 13,2 302,2 0,4
33 19.9.2018 04:30 10 0 95,9 12,6 238,3 0,3
34 19.9.2018 04:00 10 0 94,9 12,5 294,8 0
35 19.9.2018 03:30 10 0 94,5 13,1 306,6 0,7
36 19.9.2018 03:00 10 0 95,2 12,7 279,9 0,7
37 19.9.2018 02:30 10 0 94,7 12,9 268,5 0,2
38 19.9.2018 02:00 10 0 93,5 13,2 51,4 0,6
39 19.9.2018 01:30 10 0 92,5 13,7 313 0,5
40 19.9.2018 01:00 10 0 94,2 13,7 53 0,6
41 19.9.2018 00:30 10 0 94,9 12,9 43,9 0,2
42 19.9.2018 00:00 10 0 93,8 13,1 128,7 0
43 18.9.2018 23:30 10 0 92,6 13,7 316,3 0,8
44 18.9.2018 23:00 10 0 92,8 13,9 267,6 0,3
45 18.9.2018 22:30 10 0 91,7 14,3 190,2 0,3
46 18.9.2018 22:00 10 0 89,1 15 282,3 0,6
47 18.9.2018 21:30 8 0 87,4 15,4 281,2 0,9
48 18.9.2018 21:00 2 0 85,5 15,8 17,7 0,9
© 2011 Ministrstvo za kmetijstvo, gozdarstvo in prehrano. Vse pravice pridržane.